TimeEDT,TemperatureF,Dew PointF,Humidity,Sea Level PressureIn,VisibilityMPH,Wind Direction,Wind SpeedMPH,Gust SpeedMPH,PrecipitationIn,Events,Conditions,WindDirDegrees,DateUTC
12:53 AM,78.1,73.9,87,30.07,10.0,Calm,Calm,-,N/A,,Partly Cloudy,0,2013-08-17 04:53:00
1:53 AM,78.1,73.9,87,30.05,10.0,Calm,Calm,-,N/A,,Scattered Clouds,0,2013-08-17 05:53:00
2:53 AM,78.1,73.0,84,30.05,10.0,Calm,Calm,-,N/A,,Clear,0,2013-08-17 06:53:00
3:53 AM,78.1,73.9,87,30.04,10.0,Calm,Calm,-,N/A,,Partly Cloudy,0,2013-08-17 07:53:00
4:53 AM,78.1,73.9,87,30.03,10.0,Calm,Calm,-,N/A,,Clear,0,2013-08-17 08:53:00
5:53 AM,77.0,73.9,90,30.03,10.0,Calm,Calm,-,N/A,,Clear,0,2013-08-17 09:53:00
6:53 AM,77.0,73.0,88,30.05,10.0,Calm,Calm,-,N/A,,Clear,0,2013-08-17 10:53:00
7:53 AM,78.1,73.9,87,30.07,10.0,Calm,Calm,-,0.00,Rain,Light Rain,0,2013-08-17 11:53:00
8:53 AM,80.1,75.0,85,30.06,10.0,Calm,Calm,-,0.00,,Mostly Cloudy,0,2013-08-17 12:53:00
9:53 AM,82.9,77.0,82,30.09,10.0,Calm,Calm,-,0.00,,Mostly Cloudy,0,2013-08-17 13:53:00
10:53 AM,82.0,75.0,79,30.10,10.0,SE,8.1,-,N/A,,Overcast,140,2013-08-17 14:53:00
11:53 AM,81.0,73.9,79,30.09,10.0,South,6.9,-,0.10,,Overcast,170,2013-08-17 15:53:00
12:53 PM,82.9,73.0,72,30.08,10.0,SSE,3.5,-,N/A,,Clear,150,2013-08-17 16:53:00
1:53 PM,87.1,73.0,63,30.08,10.0,ESE,6.9,-,N/A,,Clear,110,2013-08-17 17:53:00
2:53 PM,87.1,73.0,63,30.06,10.0,SE,8.1,-,N/A,,Clear,140,2013-08-17 18:53:00
3:53 PM,84.9,73.0,67,30.04,10.0,SE,8.1,-,N/A,,Clear,130,2013-08-17 19:53:00
4:53 PM,84.9,73.9,69,30.03,10.0,SE,8.1,-,N/A,,Clear,130,2013-08-17 20:53:00
5:53 PM,84.9,75.0,72,30.04,10.0,SE,8.1,-,N/A,,Clear,130,2013-08-17 21:53:00
6:53 PM,84.0,75.9,76,30.05,10.0,SSE,9.2,-,N/A,,Clear,150,2013-08-17 22:53:00
7:53 PM,82.9,77.0,82,30.09,10.0,SSE,6.9,-,0.00,,Mostly Cloudy,150,2013-08-17 23:53:00
8:00 PM,82.4,77.0,84,30.09,10.0,SSE,6.9,-,N/A,,Mostly Cloudy,150,2013-08-18 00:00:00
8:35 PM,82.4,77.0,84,30.12,10.0,South,4.6,-,0.01,Rain-Thunderstorm,Thunderstorms and Rain,180,2013-08-18 00:35:00
8:48 PM,82.4,77.0,84,30.12,10.0,South,5.8,-,0.03,Rain-Thunderstorm,Thunderstorms and Rain,170,2013-08-18 00:48:00
8:53 PM,82.0,77.0,85,30.12,10.0,SSE,5.8,-,0.05,Rain-Thunderstorm,Thunderstorms and Rain,160,2013-08-18 00:53:00
9:53 PM,81.0,77.0,88,30.11,10.0,Calm,Calm,-,0.10,Rain,Rain,0,2013-08-18 01:53:00
10:24 PM,82.4,78.8,89,30.12,10.0,Calm,Calm,-,0.00,Rain,Rain,0,2013-08-18 02:24:00
10:53 PM,81.0,77.0,88,30.12,10.0,Calm,Calm,-,0.00,Rain,Rain,0,2013-08-18 02:53:00
11:53 PM,81.0,77.0,88,30.11,10.0,Calm,Calm,-,0.00,Rain,Rain,0,2013-08-18 03:53:00